sensor_id;sensor_type;location;lat;lon;timestamp;pressure;altitude;pressure_sealevel;temperature;humidity
52137;BME280;69622;49.570;10.986;2023-08-12T00:01:38;98742.41;;;18.88;100.00
52137;BME280;69622;49.570;10.986;2023-08-12T00:04:40;98742.88;;;18.83;100.00
52137;BME280;69622;49.570;10.986;2023-08-12T00:07:42;98741.25;;;18.90;100.00
52137;BME280;69622;49.570;10.986;2023-08-12T00:10:43;98739.25;;;18.84;100.00
52137;BME280;69622;49.570;10.986;2023-08-12T00:13:44;98740.66;;;18.70;100.00
52137;BME280;69622;49.570;10.986;2023-08-12T00:16:46;98737.09;;;18.79;100.00
52137;BME280;69622;49.570;10.986;2023-08-12T00:19:47;98738.19;;;18.69;100.00
52137;BME280;69622;49.570;10.986;2023-08-12T00:22:49;98743.84;;;18.30;100.00
52137;BME280;69622;49.570;10.986;2023-08-12T00:25:50;98743.72;;;18.14;100.00
52137;BME280;69622;49.570;10.986;2023-08-12T00:28:52;98741.56;;;18.09;100.00
52137;BME280;69622;49.570;10.986;2023-08-12T00:31:53;98734.34;;;18.11;100.00
52137;BME280;69622;49.570;10.986;2023-08-12T00:34:55;98721.97;;;18.30;100.00
52137;BME280;69622;49.570;10.986;2023-08-12T00:37:57;98721.59;;;18.24;100.00
52137;BME280;69622;49.570;10.986;2023-08-12T00:40:58;98729.00;;;18.21;100.00
52137;BME280;69622;49.570;10.986;2023-08-12T00:44:00;98728.91;;;18.31;100.00
52137;BME280;69622;49.570;10.986;2023-08-12T00:47:01;98728.00;;;18.22;100.00
52137;BME280;69622;49.570;10.986;2023-08-12T00:50:03;98727.44;;;18.10;100.00
52137;BME280;69622;49.570;10.986;2023-08-12T00:53:06;98725.19;;;18.15;100.00
52137;BME280;69622;49.570;10.986;2023-08-12T00:56:07;98727.44;;;18.10;100.00
52137;BME280;69622;49.570;10.986;2023-08-12T00:59:09;98720.47;;;18.01;100.00
52137;BME280;69622;49.570;10.986;2023-08-12T01:02:12;98716.63;;;17.95;100.00
52137;BME280;69622;49.570;10.986;2023-08-12T01:05:17;98712.97;;;18.14;100.00
52137;BME280;69622;49.570;10.986;2023-08-12T01:08:18;98711.56;;;18.20;100.00
52137;BME280;69622;49.570;10.986;2023-08-12T01:11:31;98710.19;;;17.90;100.00
52137;BME280;69622;49.570;10.986;2023-08-12T01:14:50;98716.31;;;17.63;100.00
52137;BME280;69622;49.570;10.986;2023-08-12T01:17:54;98711.38;;;17.60;100.00
52137;BME280;69622;49.570;10.986;2023-08-12T01:20:56;98702.97;;;17.56;100.00
52137;BME280;69622;49.570;10.986;2023-08-12T01:23:57;98696.94;;;17.64;100.00
52137;BME280;69622;49.570;10.986;2023-08-12T01:26:59;98695.59;;;17.60;100.00
52137;BME280;69622;49.570;10.986;2023-08-12T01:30:01;98694.72;;;17.69;100.00
52137;BME280;69622;49.570;10.986;2023-08-12T01:33:28;98694.69;;;17.51;100.00
52137;BME280;69622;49.570;10.986;2023-08-12T01:36:35;98683.66;;;17.48;100.00
52137;BME280;69622;49.570;10.986;2023-08-12T01:39:38;98681.16;;;17.64;100.00
52137;BME280;69622;49.570;10.986;2023-08-12T01:42:42;98675.22;;;17.62;100.00
52137;BME280;69622;49.570;10.986;2023-08-12T01:45:44;98681.25;;;17.54;100.00
52137;BME280;69622;49.570;10.986;2023-08-12T01:48:45;98676.75;;;17.47;100.00
52137;BME280;69622;49.570;10.986;2023-08-12T01:51:47;98665.50;;;17.36;100.00
52137;BME280;69622;49.570;10.986;2023-08-12T01:54:48;98665.34;;;17.38;100.00
52137;BME280;69622;49.570;10.986;2023-08-12T01:57:50;98655.34;;;17.42;100.00
52137;BME280;69622;49.570;10.986;2023-08-12T02:00:52;98648.97;;;17.44;100.00
52137;BME280;69622;49.570;10.986;2023-08-12T02:03:54;98652.94;;;17.48;100.00
52137;BME280;69622;49.570;10.986;2023-08-12T02:06:56;98653.91;;;17.29;100.00
52137;BME280;69622;49.570;10.986;2023-08-12T02:09:57;98662.47;;;17.14;100.00
52137;BME280;69622;49.570;10.986;2023-08-12T02:12:59;98655.09;;;17.17;100.00
52137;BME280;69622;49.570;10.986;2023-08-12T02:16:00;98664.47;;;17.02;100.00
52137;BME280;69622;49.570;10.986;2023-08-12T02:19:02;98659.13;;;16.94;100.00
52137;BME280;69622;49.570;10.986;2023-08-12T02:22:04;98656.78;;;16.73;100.00
52137;BME280;69622;49.570;10.986;2023-08-12T02:25:06;98658.84;;;16.69;100.00
52137;BME280;69622;49.570;10.986;2023-08-12T02:28:08;98650.78;;;16.81;100.00
52137;BME280;69622;49.570;10.986;2023-08-12T02:31:09;98646.50;;;16.80;100.00
52137;BME280;69622;49.570;10.986;2023-08-12T02:34:11;98646.56;;;16.88;100.00
52137;BME280;69622;49.570;10.986;2023-08-12T02:37:12;98642.56;;;16.93;100.00
52137;BME280;69622;49.570;10.986;2023-08-12T02:40:14;98634.69;;;16.93;100.00
52137;BME280;69622;49.570;10.986;2023-08-12T02:43:16;98642.75;;;16.82;100.00
52137;BME280;69622;49.570;10.986;2023-08-12T02:46:18;98636.16;;;16.78;100.00
52137;BME280;69622;49.570;10.986;2023-08-12T02:49:20;98637.28;;;16.66;100.00
52137;BME280;69622;49.570;10.986;2023-08-12T02:52:21;98639.09;;;16.65;100.00
52137;BME280;69622;49.570;10.986;2023-08-12T02:55:23;98626.41;;;16.61;100.00
52137;BME280;69622;49.570;10.986;2023-08-12T02:58:24;98624.94;;;16.48;100.00
52137;BME280;69622;49.570;10.986;2023-08-12T03:01:27;98622.31;;;16.48;100.00
52137;BME280;69622;49.570;10.986;2023-08-12T03:04:29;98622.84;;;16.52;100.00
52137;BME280;69622;49.570;10.986;2023-08-12T03:07:30;98624.94;;;16.48;100.00
52137;BME280;69622;49.570;10.986;2023-08-12T03:10:33;98619.59;;;16.40;100.00
52137;BME280;69622;49.570;10.986;2023-08-12T03:13:35;98620.56;;;16.39;100.00
52137;BME280;69622;49.570;10.986;2023-08-12T03:16:36;98622.19;;;16.40;100.00
52137;BME280;69622;49.570;10.986;2023-08-12T03:19:37;98622.25;;;16.31;100.00
52137;BME280;69622;49.570;10.986;2023-08-12T03:22:39;98622.00;;;16.24;100.00
52137;BME280;69622;49.570;10.986;2023-08-12T03:25:40;98620.50;;;16.22;100.00
52137;BME280;69622;49.570;10.986;2023-08-12T03:28:42;98616.63;;;16.26;100.00
52137;BME280;69622;49.570;10.986;2023-08-12T03:31:43;98623.38;;;16.28;100.00
52137;BME280;69622;49.570;10.986;2023-08-12T03:34:45;98625.19;;;16.28;100.00
52137;BME280;69622;49.570;10.986;2023-08-12T03:40:56;98628.81;;;16.17;100.00
52137;BME280;69622;49.570;10.986;2023-08-12T03:43:58;98623.41;;;16.18;100.00
52137;BME280;69622;49.570;10.986;2023-08-12T03:46:59;98617.84;;;16.31;100.00
52137;BME280;69622;49.570;10.986;2023-08-12T03:50:01;98615.88;;;16.43;100.00
52137;BME280;69622;49.570;10.986;2023-08-12T03:53:02;98623.59;;;16.44;100.00
52137;BME280;69622;49.570;10.986;2023-08-12T03:56:04;98629.13;;;16.41;100.00
52137;BME280;69622;49.570;10.986;2023-08-12T03:59:06;98631.75;;;16.41;100.00
52137;BME280;69622;49.570;10.986;2023-08-12T04:02:07;98631.47;;;16.44;100.00
52137;BME280;69622;49.570;10.986;2023-08-12T04:05:09;98619.69;;;16.48;100.00
52137;BME280;69622;49.570;10.986;2023-08-12T04:08:10;98624.75;;;16.32;100.00
52137;BME280;69622;49.570;10.986;2023-08-12T04:11:11;98627.50;;;16.31;100.00
52137;BME280;69622;49.570;10.986;2023-08-12T04:14:14;98630.22;;;16.39;100.00
52137;BME280;69622;49.570;10.986;2023-08-12T04:17:15;98625.41;;;16.34;100.00
52137;BME280;69622;49.570;10.986;2023-08-12T04:20:17;98630.69;;;16.25;100.00
52137;BME280;69622;49.570;10.986;2023-08-12T04:23:19;98626.72;;;16.21;100.00
52137;BME280;69622;49.570;10.986;2023-08-12T04:26:20;98621.03;;;16.25;100.00
52137;BME280;69622;49.570;10.986;2023-08-12T04:29:22;98619.38;;;16.24;100.00
52137;BME280;69622;49.570;10.986;2023-08-12T04:32:23;98614.91;;;16.34;100.00
52137;BME280;69622;49.570;10.986;2023-08-12T04:35:25;98614.22;;;16.42;100.00
52137;BME280;69622;49.570;10.986;2023-08-12T04:38:27;98616.53;;;16.45;100.00
52137;BME280;69622;49.570;10.986;2023-08-12T04:41:28;98612.16;;;16.36;100.00
52137;BME280;69622;49.570;10.986;2023-08-12T04:44:30;98613.66;;;16.38;100.00
52137;BME280;69622;49.570;10.986;2023-08-12T04:47:32;98611.00;;;16.48;100.00
52137;BME280;69622;49.570;10.986;2023-08-12T04:50:33;98610.75;;;16.41;100.00
52137;BME280;69622;49.570;10.986;2023-08-12T04:53:36;98610.19;;;16.38;100.00
52137;BME280;69622;49.570;10.986;2023-08-12T04:56:37;98603.00;;;16.40;100.00
52137;BME280;69622;49.570;10.986;2023-08-12T04:59:39;98611.16;;;16.46;100.00
52137;BME280;69622;49.570;10.986;2023-08-12T05:02:40;98601.03;;;16.52;100.00
52137;BME280;69622;49.570;10.986;2023-08-12T05:05:42;98607.50;;;16.57;100.00
52137;BME280;69622;49.570;10.986;2023-08-12T05:08:43;98605.72;;;16.58;100.00
52137;BME280;69622;49.570;10.986;2023-08-12T05:11:45;98599.47;;;16.59;100.00
52137;BME280;69622;49.570;10.986;2023-08-12T05:14:46;98598.16;;;16.72;100.00
52137;BME280;69622;49.570;10.986;2023-08-12T05:17:48;98600.66;;;16.74;100.00
52137;BME280;69622;49.570;10.986;2023-08-12T05:20:51;98595.78;;;16.79;100.00
52137;BME280;69622;49.570;10.986;2023-08-12T05:23:53;98593.38;;;16.86;100.00
52137;BME280;69622;49.570;10.986;2023-08-12T05:26:54;98595.75;;;16.89;100.00
52137;BME280;69622;49.570;10.986;2023-08-12T05:29:56;98595.44;;;16.92;100.00
52137;BME280;69622;49.570;10.986;2023-08-12T05:32:57;98591.38;;;16.97;100.00
52137;BME280;69622;49.570;10.986;2023-08-12T05:35:59;98584.56;;;17.04;100.00
52137;BME280;69622;49.570;10.986;2023-08-12T05:39:00;98590.91;;;17.20;100.00
52137;BME280;69622;49.570;10.986;2023-08-12T05:42:02;98588.66;;;17.43;100.00
52137;BME280;69622;49.570;10.986;2023-08-12T05:45:04;98577.88;;;17.72;100.00
52137;BME280;69622;49.570;10.986;2023-08-12T05:48:08;98578.03;;;17.96;100.00
52137;BME280;69622;49.570;10.986;2023-08-12T05:51:10;98570.75;;;18.24;100.00
52137;BME280;69622;49.570;10.986;2023-08-12T05:54:11;98568.72;;;18.10;100.00
52137;BME280;69622;49.570;10.986;2023-08-12T05:57:13;98569.19;;;18.39;100.00
52137;BME280;69622;49.570;10.986;2023-08-12T06:00:14;98572.78;;;18.38;100.00
52137;BME280;69622;49.570;10.986;2023-08-12T06:03:16;98563.31;;;18.53;100.00
52137;BME280;69622;49.570;10.986;2023-08-12T06:06:18;98557.94;;;18.29;100.00
52137;BME280;69622;49.570;10.986;2023-08-12T06:09:19;98565.06;;;18.37;100.00
52137;BME280;69622;49.570;10.986;2023-08-12T06:12:21;98561.94;;;18.83;100.00
52137;BME280;69622;49.570;10.986;2023-08-12T06:15:22;98562.66;;;18.51;100.00
52137;BME280;69622;49.570;10.986;2023-08-12T06:18:24;98557.56;;;18.58;100.00
52137;BME280;69622;49.570;10.986;2023-08-12T06:21:25;98559.03;;;18.52;100.00
52137;BME280;69622;49.570;10.986;2023-08-12T06:24:27;98557.88;;;18.55;100.00
52137;BME280;69622;49.570;10.986;2023-08-12T06:27:28;98563.75;;;18.83;100.00
52137;BME280;69622;49.570;10.986;2023-08-12T06:30:30;98564.75;;;19.23;100.00
52137;BME280;69622;49.570;10.986;2023-08-12T06:33:31;98564.75;;;19.06;100.00
52137;BME280;69622;49.570;10.986;2023-08-12T06:36:33;98572.03;;;19.12;100.00
52137;BME280;69622;49.570;10.986;2023-08-12T06:39:34;98572.16;;;19.03;100.00
52137;BME280;69622;49.570;10.986;2023-08-12T06:42:36;98575.44;;;18.80;100.00
52137;BME280;69622;49.570;10.986;2023-08-12T06:45:37;98576.09;;;18.91;100.00
52137;BME280;69622;49.570;10.986;2023-08-12T06:48:39;98572.31;;;19.01;100.00
52137;BME280;69622;49.570;10.986;2023-08-12T06:51:40;98573.81;;;18.96;100.00
52137;BME280;69622;49.570;10.986;2023-08-12T06:54:42;98569.72;;;19.34;100.00
52137;BME280;69622;49.570;10.986;2023-08-12T06:57:43;98572.69;;;19.31;100.00
52137;BME280;69622;49.570;10.986;2023-08-12T07:00:45;98571.53;;;19.74;100.00
52137;BME280;69622;49.570;10.986;2023-08-12T07:03:46;98575.28;;;19.80;100.00
52137;BME280;69622;49.570;10.986;2023-08-12T07:06:48;98574.44;;;19.95;100.00
52137;BME280;69622;49.570;10.986;2023-08-12T07:09:49;98571.66;;;19.40;100.00
52137;BME280;69622;49.570;10.986;2023-08-12T07:12:51;98573.53;;;20.19;100.00
52137;BME280;69622;49.570;10.986;2023-08-12T07:15:52;98578.19;;;20.09;100.00
52137;BME280;69622;49.570;10.986;2023-08-12T07:18:54;98572.63;;;20.04;100.00
52137;BME280;69622;49.570;10.986;2023-08-12T07:21:55;98572.09;;;20.09;100.00
52137;BME280;69622;49.570;10.986;2023-08-12T07:24:57;98578.75;;;20.44;100.00
52137;BME280;69622;49.570;10.986;2023-08-12T07:28:01;98576.28;;;20.73;100.00
52137;BME280;69622;49.570;10.986;2023-08-12T07:31:02;98566.81;;;20.87;98.13
52137;BME280;69622;49.570;10.986;2023-08-12T07:34:04;98565.50;;;21.06;99.54
52137;BME280;69622;49.570;10.986;2023-08-12T07:37:05;98555.47;;;21.01;96.42
52137;BME280;69622;49.570;10.986;2023-08-12T07:40:07;98560.69;;;21.09;94.07
52137;BME280;69622;49.570;10.986;2023-08-12T07:43:10;98566.09;;;21.16;93.29
52137;BME280;69622;49.570;10.986;2023-08-12T07:46:11;98558.69;;;21.11;92.99
52137;BME280;69622;49.570;10.986;2023-08-12T07:49:13;98558.53;;;21.36;95.66
52137;BME280;69622;49.570;10.986;2023-08-12T07:52:14;98562.88;;;21.29;95.30
52137;BME280;69622;49.570;10.986;2023-08-12T07:55:16;98565.34;;;21.30;96.51
52137;BME280;69622;49.570;10.986;2023-08-12T07:58:18;98565.50;;;21.06;100.00
52137;BME280;69622;49.570;10.986;2023-08-12T08:01:19;98571.03;;;21.19;97.35
52137;BME280;69622;49.570;10.986;2023-08-12T08:04:21;98575.38;;;21.72;95.73
52137;BME280;69622;49.570;10.986;2023-08-12T08:07:22;98577.59;;;21.46;100.00
52137;BME280;69622;49.570;10.986;2023-08-12T08:10:24;98586.03;;;21.49;100.00
52137;BME280;69622;49.570;10.986;2023-08-12T08:13:25;98581.75;;;21.48;100.00
52137;BME280;69622;49.570;10.986;2023-08-12T08:16:27;98580.00;;;21.56;100.00
52137;BME280;69622;49.570;10.986;2023-08-12T08:19:29;98570.38;;;21.63;100.00
52137;BME280;69622;49.570;10.986;2023-08-12T08:22:31;98561.44;;;21.93;98.76
52137;BME280;69622;49.570;10.986;2023-08-12T08:25:33;98558.06;;;21.85;100.00
52137;BME280;69622;49.570;10.986;2023-08-12T08:28:34;98558.47;;;22.11;95.59
52137;BME280;69622;49.570;10.986;2023-08-12T08:31:36;98562.56;;;22.43;93.29
52137;BME280;69622;49.570;10.986;2023-08-12T08:34:37;98562.53;;;22.58;92.77
52137;BME280;69622;49.570;10.986;2023-08-12T08:37:40;98557.06;;;22.81;93.93
52137;BME280;69622;49.570;10.986;2023-08-12T08:40:42;98562.63;;;22.50;93.68
52137;BME280;69622;49.570;10.986;2023-08-12T08:43:44;98567.59;;;22.89;85.19
52137;BME280;69622;49.570;10.986;2023-08-12T08:46:52;98565.06;;;22.66;91.06
52137;BME280;69622;49.570;10.986;2023-08-12T08:49:55;98562.84;;;22.84;95.63
52137;BME280;69622;49.570;10.986;2023-08-12T08:52:57;98563.69;;;23.06;92.44
52137;BME280;69622;49.570;10.986;2023-08-12T08:55:59;98563.72;;;23.13;85.29
52137;BME280;69622;49.570;10.986;2023-08-12T08:59:02;98566.94;;;23.29;84.74
52137;BME280;69622;49.570;10.986;2023-08-12T09:02:04;98567.88;;;23.43;87.39
52137;BME280;69622;49.570;10.986;2023-08-12T09:05:07;98558.22;;;23.85;84.52
52137;BME280;69622;49.570;10.986;2023-08-12T09:08:09;98564.88;;;23.74;83.56
52137;BME280;69622;49.570;10.986;2023-08-12T09:11:13;98568.19;;;23.34;81.14
52137;BME280;69622;49.570;10.986;2023-08-12T09:14:15;98560.53;;;23.67;82.96
52137;BME280;69622;49.570;10.986;2023-08-12T09:17:16;98557.97;;;23.52;81.10
52137;BME280;69622;49.570;10.986;2023-08-12T09:20:17;98554.09;;;23.54;80.02
52137;BME280;69622;49.570;10.986;2023-08-12T09:23:19;98554.28;;;23.53;86.16
52137;BME280;69622;49.570;10.986;2023-08-12T09:26:21;98552.75;;;23.93;79.95
52137;BME280;69622;49.570;10.986;2023-08-12T09:29:23;98557.00;;;23.87;76.76
52137;BME280;69622;49.570;10.986;2023-08-12T09:32:25;98551.19;;;23.71;79.65
52137;BME280;69622;49.570;10.986;2023-08-12T09:35:38;98558.84;;;24.28;82.93
52137;BME280;69622;49.570;10.986;2023-08-12T09:38:40;98557.75;;;24.09;80.75
52137;BME280;69622;49.570;10.986;2023-08-12T09:41:42;98555.34;;;24.14;85.11
52137;BME280;69622;49.570;10.986;2023-08-12T09:44:44;98559.63;;;24.15;81.59
52137;BME280;69622;49.570;10.986;2023-08-12T09:47:46;98560.59;;;24.08;83.07
52137;BME280;69622;49.570;10.986;2023-08-12T09:50:47;98566.41;;;24.66;76.78
52137;BME280;69622;49.570;10.986;2023-08-12T09:53:52;98565.69;;;24.44;80.64
52137;BME280;69622;49.570;10.986;2023-08-12T09:56:58;98556.28;;;24.35;74.48
52137;BME280;69622;49.570;10.986;2023-08-12T10:00:00;98560.03;;;24.60;77.04
52137;BME280;69622;49.570;10.986;2023-08-12T10:03:02;98545.25;;;24.03;81.51
52137;BME280;69622;49.570;10.986;2023-08-12T10:06:05;98545.75;;;24.27;87.98
52137;BME280;69622;49.570;10.986;2023-08-12T10:09:07;98547.69;;;24.33;80.26
52137;BME280;69622;49.570;10.986;2023-08-12T10:12:12;98540.09;;;24.30;83.02
52137;BME280;69622;49.570;10.986;2023-08-12T10:15:20;98532.63;;;24.53;78.00
52137;BME280;69622;49.570;10.986;2023-08-12T10:18:23;98535.53;;;24.71;73.73
52137;BME280;69622;49.570;10.986;2023-08-12T10:21:25;98527.25;;;25.14;72.38
52137;BME280;69622;49.570;10.986;2023-08-12T10:24:27;98530.13;;;25.32;76.51
52137;BME280;69622;49.570;10.986;2023-08-12T10:27:29;98523.34;;;25.36;77.70
52137;BME280;69622;49.570;10.986;2023-08-12T10:30:30;98533.00;;;25.44;72.06
52137;BME280;69622;49.570;10.986;2023-08-12T10:33:37;98526.16;;;24.82;74.67
52137;BME280;69622;49.570;10.986;2023-08-12T10:36:41;98518.41;;;24.94;76.74
52137;BME280;69622;49.570;10.986;2023-08-12T10:40:05;98518.63;;;25.91;72.11
52137;BME280;69622;49.570;10.986;2023-08-12T10:43:11;98520.50;;;25.58;75.07
52137;BME280;69622;49.570;10.986;2023-08-12T10:46:45;98515.16;;;25.64;74.63
52137;BME280;69622;49.570;10.986;2023-08-12T10:49:47;98514.53;;;25.69;74.03
52137;BME280;69622;49.570;10.986;2023-08-12T10:52:53;98511.50;;;25.72;82.22
52137;BME280;69622;49.570;10.986;2023-08-12T10:55:56;98508.38;;;25.55;76.91
52137;BME280;69622;49.570;10.986;2023-08-12T10:58:58;98502.66;;;25.58;77.97
52137;BME280;69622;49.570;10.986;2023-08-12T11:02:07;98508.56;;;25.93;72.37
52137;BME280;69622;49.570;10.986;2023-08-12T11:05:10;98503.44;;;25.85;73.76
52137;BME280;69622;49.570;10.986;2023-08-12T11:08:13;98501.44;;;25.74;71.54
52137;BME280;69622;49.570;10.986;2023-08-12T11:11:23;98492.59;;;25.87;73.80
52137;BME280;69622;49.570;10.986;2023-08-12T11:14:25;98485.88;;;25.38;80.88
52137;BME280;69622;49.570;10.986;2023-08-12T11:17:39;98476.25;;;25.77;77.13
52137;BME280;69622;49.570;10.986;2023-08-12T11:20:41;98467.44;;;25.76;75.54
52137;BME280;69622;49.570;10.986;2023-08-12T11:23:42;98471.28;;;25.87;73.74
52137;BME280;69622;49.570;10.986;2023-08-12T11:26:45;98463.88;;;25.95;75.62
52137;BME280;69622;49.570;10.986;2023-08-12T11:29:49;98462.31;;;26.26;75.08
52137;BME280;69622;49.570;10.986;2023-08-12T11:32:55;98469.06;;;26.28;76.40
52137;BME280;69622;49.570;10.986;2023-08-12T11:35:58;98479.34;;;26.63;69.59
52137;BME280;69622;49.570;10.986;2023-08-12T11:39:01;98465.03;;;26.13;75.98
52137;BME280;69622;49.570;10.986;2023-08-12T11:42:03;98459.84;;;26.38;75.09
52137;BME280;69622;49.570;10.986;2023-08-12T11:45:05;98448.13;;;26.32;74.58
52137;BME280;69622;49.570;10.986;2023-08-12T11:48:09;98450.41;;;26.67;71.73
52137;BME280;69622;49.570;10.986;2023-08-12T11:51:11;98443.75;;;27.32;67.20
52137;BME280;69622;49.570;10.986;2023-08-12T11:54:12;98443.59;;;27.45;65.32
52137;BME280;69622;49.570;10.986;2023-08-12T11:57:14;98436.34;;;27.34;68.68
52137;BME280;69622;49.570;10.986;2023-08-12T12:00:16;98438.06;;;26.97;69.34
52137;BME280;69622;49.570;10.986;2023-08-12T12:03:20;98425.78;;;27.21;69.83
52137;BME280;69622;49.570;10.986;2023-08-12T12:06:37;98430.09;;;27.40;70.92
52137;BME280;69622;49.570;10.986;2023-08-12T12:09:43;98416.97;;;27.64;65.97
52137;BME280;69622;49.570;10.986;2023-08-12T12:12:45;98412.91;;;27.91;64.54
52137;BME280;69622;49.570;10.986;2023-08-12T12:15:47;98410.25;;;27.91;66.58
52137;BME280;69622;49.570;10.986;2023-08-12T12:18:48;98405.19;;;28.01;63.42
52137;BME280;69622;49.570;10.986;2023-08-12T12:21:51;98400.91;;;28.00;64.80
52137;BME280;69622;49.570;10.986;2023-08-12T12:24:53;98398.59;;;28.34;66.94
52137;BME280;69622;49.570;10.986;2023-08-12T12:27:55;98382.00;;;28.14;64.43
52137;BME280;69622;49.570;10.986;2023-08-12T12:30:56;98372.41;;;28.78;62.41
52137;BME280;69622;49.570;10.986;2023-08-12T12:33:58;98366.25;;;28.77;57.96
52137;BME280;69622;49.570;10.986;2023-08-12T12:36:59;98360.09;;;28.77;62.11
52137;BME280;69622;49.570;10.986;2023-08-12T12:40:01;98363.50;;;28.96;59.29
52137;BME280;69622;49.570;10.986;2023-08-12T12:43:04;98374.53;;;28.99;60.15
52137;BME280;69622;49.570;10.986;2023-08-12T12:46:05;98386.56;;;29.20;60.63
52137;BME280;69622;49.570;10.986;2023-08-12T12:49:07;98393.88;;;29.36;61.37
52137;BME280;69622;49.570;10.986;2023-08-12T12:52:08;98406.59;;;29.81;56.90
52137;BME280;69622;49.570;10.986;2023-08-12T12:55:10;98417.00;;;30.18;59.23
52137;BME280;69622;49.570;10.986;2023-08-12T12:58:11;98422.84;;;29.63;54.80
52137;BME280;69622;49.570;10.986;2023-08-12T13:01:13;98420.78;;;29.53;60.22
52137;BME280;69622;49.570;10.986;2023-08-12T13:04:14;98416.09;;;29.25;57.15
52137;BME280;69622;49.570;10.986;2023-08-12T13:07:15;98424.94;;;29.02;58.92
52137;BME280;69622;49.570;10.986;2023-08-12T13:10:17;98425.19;;;28.89;62.64
52137;BME280;69622;49.570;10.986;2023-08-12T13:13:18;98423.75;;;28.45;61.36
52137;BME280;69622;49.570;10.986;2023-08-12T13:16:20;98415.81;;;28.38;65.52
52137;BME280;69622;49.570;10.986;2023-08-12T13:19:22;98409.75;;;28.84;58.44
52137;BME280;69622;49.570;10.986;2023-08-12T13:22:23;98401.06;;;29.01;63.21
52137;BME280;69622;49.570;10.986;2023-08-12T13:25:24;98398.63;;;28.99;62.75
52137;BME280;69622;49.570;10.986;2023-08-12T13:28:26;98384.69;;;29.09;57.72
52137;BME280;69622;49.570;10.986;2023-08-12T13:31:27;98382.78;;;28.86;61.08
52137;BME280;69622;49.570;10.986;2023-08-12T13:34:29;98379.00;;;28.22;62.98
52137;BME280;69622;49.570;10.986;2023-08-12T13:37:32;98389.78;;;27.85;63.82
52137;BME280;69622;49.570;10.986;2023-08-12T13:40:33;98400.66;;;28.02;63.13
52137;BME280;69622;49.570;10.986;2023-08-12T13:43:35;98410.25;;;27.55;65.60
52137;BME280;69622;49.570;10.986;2023-08-12T13:46:36;98416.50;;;27.49;73.25
52137;BME280;69622;49.570;10.986;2023-08-12T13:49:38;98417.97;;;26.95;83.36
52137;BME280;69622;49.570;10.986;2023-08-12T13:52:39;98438.34;;;26.19;100.00
52137;BME280;69622;49.570;10.986;2023-08-12T13:55:41;98479.25;;;25.87;100.00
52137;BME280;69622;49.570;10.986;2023-08-12T13:58:42;98544.75;;;23.58;100.00
52137;BME280;69622;49.570;10.986;2023-08-12T14:01:44;98551.47;;;22.39;100.00
52137;BME280;69622;49.570;10.986;2023-08-12T14:04:46;98597.84;;;21.39;100.00
52137;BME280;69622;49.570;10.986;2023-08-12T14:07:47;98646.84;;;20.96;100.00
52137;BME280;69622;49.570;10.986;2023-08-12T14:10:49;98622.47;;;20.46;100.00
52137;BME280;69622;49.570;10.986;2023-08-12T14:13:51;98617.28;;;20.69;100.00
52137;BME280;69622;49.570;10.986;2023-08-12T14:16:53;98592.13;;;20.42;100.00
52137;BME280;69622;49.570;10.986;2023-08-12T14:19:55;98584.31;;;20.57;100.00
52137;BME280;69622;49.570;10.986;2023-08-12T14:22:57;98596.94;;;20.30;100.00
52137;BME280;69622;49.570;10.986;2023-08-12T14:25:58;98599.00;;;20.59;100.00
52137;BME280;69622;49.570;10.986;2023-08-12T14:29:00;98584.50;;;20.78;100.00
52137;BME280;69622;49.570;10.986;2023-08-12T14:32:01;98545.91;;;20.38;100.00
52137;BME280;69622;49.570;10.986;2023-08-12T14:35:03;98508.69;;;20.25;100.00
52137;BME280;69622;49.570;10.986;2023-08-12T14:38:06;98522.00;;;19.92;100.00
52137;BME280;69622;49.570;10.986;2023-08-12T14:41:08;98573.91;;;20.00;100.00
52137;BME280;69622;49.570;10.986;2023-08-12T14:44:09;98553.38;;;19.79;100.00
52137;BME280;69622;49.570;10.986;2023-08-12T14:47:10;98541.38;;;20.16;100.00
52137;BME280;69622;49.570;10.986;2023-08-12T14:50:12;98551.19;;;19.91;100.00
52137;BME280;69622;49.570;10.986;2023-08-12T14:53:14;98571.31;;;19.84;100.00
52137;BME280;69622;49.570;10.986;2023-08-12T14:56:15;98573.91;;;20.08;100.00
52137;BME280;69622;49.570;10.986;2023-08-12T14:59:17;98571.75;;;20.03;100.00
52137;BME280;69622;49.570;10.986;2023-08-12T15:02:20;98565.06;;;20.32;100.00
52137;BME280;69622;49.570;10.986;2023-08-12T15:05:22;98571.16;;;20.32;100.00
52137;BME280;69622;49.570;10.986;2023-08-12T15:08:23;98570.75;;;20.21;100.00
52137;BME280;69622;49.570;10.986;2023-08-12T15:11:25;98584.31;;;20.57;100.00
52137;BME280;69622;49.570;10.986;2023-08-12T15:14:26;98597.00;;;20.61;100.00
52137;BME280;69622;49.570;10.986;2023-08-12T15:17:28;98602.69;;;20.42;100.00
52137;BME280;69622;49.570;10.986;2023-08-12T15:20:29;98594.00;;;20.64;100.00
52137;BME280;69622;49.570;10.986;2023-08-12T15:23:32;98600.38;;;20.39;100.00
52137;BME280;69622;49.570;10.986;2023-08-12T15:26:36;98599.63;;;20.22;100.00
52137;BME280;69622;49.570;10.986;2023-08-12T15:29:37;98616.38;;;20.46;100.00
52137;BME280;69622;49.570;10.986;2023-08-12T15:32:39;98618.09;;;20.22;100.00
52137;BME280;69622;49.570;10.986;2023-08-12T15:35:43;98624.47;;;20.44;100.00
52137;BME280;69622;49.570;10.986;2023-08-12T15:38:46;98620.03;;;20.37;100.00
52137;BME280;69622;49.570;10.986;2023-08-12T15:41:47;98609.41;;;20.06;100.00
52137;BME280;69622;49.570;10.986;2023-08-12T15:44:49;98619.59;;;20.09;100.00
52137;BME280;69622;49.570;10.986;2023-08-12T15:47:51;98608.19;;;20.24;100.00